createdAt,value
2018-07-13T00:02:23.596Z,4.57
2018-07-13T00:04:51.790Z,4.33
2018-07-13T00:07:19.779Z,4.07
2018-07-13T00:09:47.962Z,4.90
2018-07-13T00:12:16.136Z,4.90
2018-07-13T00:15:20.996Z,4.40
2018-07-13T00:17:49.164Z,4.53
2018-07-13T00:20:17.331Z,4.40
2018-07-13T00:22:46.372Z,4.30
2018-07-13T00:25:14.552Z,4.70
2018-07-13T00:27:42.719Z,4.77
2018-07-13T00:30:10.900Z,4.73
2018-07-13T00:32:39.063Z,4.67
2018-07-13T00:35:07.227Z,3.87
2018-07-13T00:37:35.414Z,4.30
2018-07-13T00:40:03.892Z,4.70
2018-07-13T00:42:32.073Z,4.00
2018-07-13T00:45:00.255Z,4.93
2018-07-13T00:47:28.231Z,4.60
2018-07-13T00:49:56.166Z,3.73
2018-07-13T00:52:24.345Z,4.63
2018-07-13T00:54:52.519Z,4.13
2018-07-13T00:57:20.709Z,4.87
2018-07-13T00:59:48.628Z,4.63
2018-07-13T01:02:16.810Z,4.60
2018-07-13T01:04:44.988Z,5.00
2018-07-13T01:07:13.155Z,4.23
2018-07-13T01:09:41.321Z,5.37
2018-07-13T01:12:09.485Z,4.77
2018-07-13T01:14:37.655Z,4.20
2018-07-13T01:17:05.835Z,6.10
2018-07-13T01:19:34.016Z,4.50
2018-07-13T01:22:02.232Z,4.90
2018-07-13T01:24:30.407Z,4.50
2018-07-13T01:26:58.355Z,4.67
2018-07-13T01:29:26.779Z,5.77
2018-07-13T01:31:54.976Z,5.17
2018-07-13T01:34:23.141Z,4.13
2018-07-13T01:36:51.632Z,4.77
2018-07-13T01:39:19.795Z,5.30
2018-07-13T01:41:47.972Z,5.63
2018-07-13T01:44:16.157Z,4.90
2018-07-13T01:46:44.387Z,5.43
2018-07-13T01:49:12.926Z,6.60
2018-07-13T01:51:41.771Z,5.43
2018-07-13T01:54:09.948Z,5.43
2018-07-13T01:56:38.112Z,5.50
2018-07-13T01:59:06.312Z,5.07
2018-07-13T02:01:34.516Z,5.77
2018-07-13T02:04:02.691Z,5.73
2018-07-13T02:06:30.864Z,6.03
2018-07-13T02:08:59.105Z,6.93
2018-07-13T02:11:27.279Z,6.40
2018-07-13T02:13:55.480Z,6.43
2018-07-13T02:16:23.651Z,6.47
2018-07-13T02:18:51.842Z,6.23
2018-07-13T02:21:20.004Z,7.13
2018-07-13T02:23:48.203Z,6.70
2018-07-13T02:26:16.404Z,6.60
2018-07-13T02:28:44.559Z,7.07
2018-07-13T02:31:12.483Z,6.80
2018-07-13T02:33:40.688Z,7.13
2018-07-13T02:36:08.849Z,5.93
2018-07-13T02:38:37.023Z,6.53
2018-07-13T02:41:05.201Z,6.13
2018-07-13T02:43:33.631Z,6.53
2018-07-13T02:46:01.804Z,5.10
2018-07-13T02:48:29.963Z,6.73
2018-07-13T02:50:58.150Z,5.67
2018-07-13T02:53:26.362Z,6.70
2018-07-13T02:55:54.616Z,7.60
2018-07-13T02:58:22.881Z,6.07
2018-07-13T03:00:51.064Z,5.87
2018-07-13T03:03:19.282Z,6.33
2018-07-13T03:05:47.567Z,6.83
2018-07-13T03:08:15.529Z,7.40
2018-07-13T03:10:43.518Z,7.10
2018-07-13T03:13:11.706Z,7.43
2018-07-13T03:15:39.896Z,6.43
2018-07-13T03:18:08.073Z,7.40
2018-07-13T03:20:36.286Z,7.30
2018-07-13T03:23:04.492Z,7.50
2018-07-13T03:25:32.668Z,7.53
2018-07-13T03:28:00.839Z,6.37
2018-07-13T03:30:29.022Z,7.77
2018-07-13T03:32:57.175Z,7.90
2018-07-13T03:35:25.369Z,7.80
2018-07-13T03:37:53.531Z,7.77
2018-07-13T03:40:21.704Z,7.90
2018-07-13T03:42:49.884Z,7.43
2018-07-13T03:45:18.055Z,7.80
2018-07-13T03:47:46.248Z,7.07
2018-07-13T03:50:14.789Z,8.47
2018-07-13T03:52:42.730Z,7.70
2018-07-13T03:55:10.928Z,8.13
2018-07-13T03:57:39.104Z,7.70
2018-07-13T04:00:07.058Z,8.40
2018-07-13T04:02:35.253Z,7.87
2018-07-13T04:05:03.192Z,8.13
2018-07-13T04:07:31.431Z,6.83
2018-07-13T04:09:59.612Z,8.20
2018-07-13T04:12:27.774Z,7.40
2018-07-13T04:14:55.976Z,7.77
2018-07-13T04:17:24.148Z,7.73
2018-07-13T04:19:52.344Z,6.23
2018-07-13T04:22:20.515Z,6.17
2018-07-13T04:24:48.716Z,6.63
2018-07-13T04:27:16.678Z,6.47
2018-07-13T04:29:44.896Z,5.70
2018-07-13T04:32:13.191Z,5.37
2018-07-13T04:34:41.509Z,5.27
2018-07-13T04:37:09.460Z,5.00
2018-07-13T04:39:37.628Z,5.57
2018-07-13T04:42:05.984Z,5.57
2018-07-13T04:44:34.184Z,5.97
2018-07-13T04:47:02.372Z,5.40
2018-07-13T04:49:30.344Z,5.87
2018-07-13T04:51:58.298Z,5.73
2018-07-13T04:54:26.496Z,6.80
2018-07-13T04:56:54.668Z,5.70
2018-07-13T04:59:22.848Z,5.97
2018-07-13T05:01:51.080Z,5.57
2018-07-13T05:04:19.528Z,6.07
2018-07-13T05:06:48.040Z,6.33
2018-07-13T05:09:16.273Z,6.60
2018-07-13T05:11:44.440Z,6.00
2018-07-13T05:14:12.634Z,5.50
2018-07-13T05:16:40.799Z,6.30
2018-07-13T05:19:08.973Z,6.10
2018-07-13T05:21:37.760Z,5.90
2018-07-13T05:24:05.985Z,5.87
2018-07-13T05:26:34.175Z,5.47
2018-07-13T05:29:02.103Z,6.87
2018-07-13T05:31:30.276Z,5.63
2018-07-13T05:33:58.464Z,6.00
2018-07-13T05:36:26.649Z,7.50
2018-07-13T05:38:54.856Z,6.30
2018-07-13T05:41:23.029Z,6.27
2018-07-13T05:43:51.355Z,7.27
2018-07-13T05:46:19.561Z,7.10
2018-07-13T05:48:47.522Z,6.23
2018-07-13T05:51:15.533Z,6.10
2018-07-13T05:53:43.719Z,6.73
2018-07-13T05:56:11.940Z,7.03
2018-07-13T05:58:39.887Z,5.90
2018-07-13T06:01:08.223Z,5.73
2018-07-13T06:03:36.437Z,5.90
2018-07-13T06:06:04.646Z,5.63
2018-07-13T06:08:32.595Z,5.77
2018-07-13T06:11:00.843Z,5.30
2018-07-13T06:13:29.019Z,5.30
2018-07-13T06:15:57.179Z,5.13
2018-07-13T06:18:25.464Z,5.40
2018-07-13T06:20:53.639Z,5.13
2018-07-13T06:23:21.857Z,4.90
2018-07-13T06:25:49.783Z,6.73
2018-07-13T06:28:17.969Z,5.13
2018-07-13T06:30:46.153Z,4.63
2018-07-13T06:33:14.207Z,4.50
2018-07-13T06:35:42.393Z,4.60
2018-07-13T06:38:10.602Z,5.33
2018-07-13T06:40:38.796Z,5.33
2018-07-13T06:43:07.403Z,5.30
2018-07-13T06:45:37.673Z,4.53
2018-07-13T06:48:05.998Z,4.53
2018-07-13T06:50:34.394Z,4.97
2018-07-13T06:53:02.543Z,5.10
2018-07-13T06:55:30.716Z,4.23
2018-07-13T06:58:10.285Z,5.67
2018-07-13T07:00:56.439Z,5.07
2018-07-13T07:03:25.509Z,4.80
2018-07-13T07:05:55.196Z,4.90
2018-07-13T07:08:23.149Z,5.57
2018-07-13T07:10:51.336Z,5.63
2018-07-13T07:13:22.671Z,5.43
2018-07-13T07:15:50.856Z,5.77
2018-07-13T07:18:19.064Z,6.57
2018-07-13T07:20:47.249Z,6.00
2018-07-13T07:23:15.547Z,5.73
2018-07-13T07:25:43.774Z,4.83
2018-07-13T07:28:11.711Z,5.20
2018-07-13T07:30:39.986Z,5.53
2018-07-13T07:33:08.297Z,6.03
2018-07-13T07:35:36.481Z,5.83
2018-07-13T07:38:04.676Z,6.30
2018-07-13T07:40:32.885Z,4.60
2018-07-13T07:43:01.072Z,5.27
2018-07-13T07:45:29.256Z,5.30
2018-07-13T07:47:57.192Z,5.50
2018-07-13T07:50:25.568Z,5.87
2018-07-13T07:52:53.748Z,6.30
2018-07-13T07:55:21.952Z,6.47
2018-07-13T07:57:49.907Z,7.07
2018-07-13T08:00:17.881Z,6.97
2018-07-13T08:02:45.831Z,6.10
2018-07-13T08:05:14.036Z,6.37
2018-07-13T08:07:42.001Z,6.57
2018-07-13T08:10:10.178Z,6.87
2018-07-13T08:12:38.116Z,7.27
2018-07-13T08:15:06.288Z,6.30
2018-07-13T08:17:34.467Z,5.57
2018-07-13T08:20:02.695Z,7.00
2018-07-13T08:22:37.722Z,6.80
2018-07-13T08:25:06.880Z,5.57
2018-07-13T08:27:36.450Z,5.67
2018-07-13T08:30:06.108Z,5.67
2018-07-13T08:32:34.062Z,5.60
2018-07-13T08:35:01.991Z,5.40
2018-07-13T08:37:30.186Z,5.63
2018-07-13T08:39:58.364Z,5.20
2018-07-13T08:42:26.676Z,6.10
2018-07-13T08:44:54.896Z,5.10
2018-07-13T08:47:23.072Z,5.53
2018-07-13T08:49:51.396Z,4.80
2018-07-13T08:52:19.605Z,6.17
2018-07-13T08:54:47.825Z,6.43
2018-07-13T08:57:15.996Z,5.03
2018-07-13T08:59:44.014Z,5.30
2018-07-13T09:02:11.946Z,4.87
2018-07-13T09:04:39.903Z,5.03
2018-07-13T09:07:08.091Z,5.50
2018-07-13T09:09:36.029Z,5.97
2018-07-13T09:12:04.256Z,5.10
2018-07-13T09:14:32.459Z,6.27
2018-07-13T09:17:00.643Z,5.23
2018-07-13T09:19:28.815Z,5.30
2018-07-13T09:21:56.996Z,5.27
2018-07-13T09:24:25.271Z,5.97
2018-07-13T09:26:53.436Z,5.37
2018-07-13T09:29:21.620Z,5.57
2018-07-13T09:31:49.805Z,6.03
2018-07-13T09:34:18.106Z,5.40
2018-07-13T09:36:46.215Z,5.40
2018-07-13T09:39:14.409Z,5.63
2018-07-13T09:41:42.612Z,5.90
2018-07-13T09:44:10.579Z,4.60
2018-07-13T09:46:38.602Z,5.13
2018-07-13T09:49:06.727Z,4.40
2018-07-13T09:51:34.671Z,5.87
2018-07-13T09:54:03.003Z,4.90
2018-07-13T09:56:31.088Z,5.80
2018-07-13T09:58:59.286Z,4.73
2018-07-13T10:01:27.501Z,4.60
2018-07-13T10:03:55.447Z,5.60
2018-07-13T10:06:23.692Z,5.80
2018-07-13T10:08:51.902Z,5.47
2018-07-13T10:11:19.839Z,5.83
2018-07-13T10:13:48.028Z,5.53
2018-07-13T10:16:16.213Z,4.93
2018-07-13T10:18:44.442Z,5.37
2018-07-13T10:21:12.629Z,4.50
2018-07-13T10:23:41.532Z,5.20
2018-07-13T10:26:17.861Z,5.00
2018-07-13T10:28:46.068Z,5.77
2018-07-13T10:31:14.583Z,5.30
2018-07-13T10:33:42.532Z,5.47
2018-07-13T10:36:13.387Z,5.30
2018-07-13T10:38:41.322Z,5.60
2018-07-13T10:41:09.568Z,5.80
2018-07-13T10:43:37.747Z,5.17
2018-07-13T10:46:05.987Z,4.77
2018-07-13T10:48:34.192Z,5.10
2018-07-13T10:51:02.377Z,5.80
2018-07-13T10:53:30.572Z,5.10
2018-07-13T10:55:58.779Z,6.10
2018-07-13T10:58:26.887Z,5.77
2018-07-13T11:00:55.072Z,5.90
2018-07-13T11:03:23.264Z,6.50
2018-07-13T11:05:51.440Z,5.67
2018-07-13T11:08:19.624Z,5.97
2018-07-13T11:10:47.796Z,6.70
2018-07-13T11:13:15.992Z,5.60
2018-07-13T11:15:43.958Z,6.10
2018-07-13T11:18:11.898Z,5.70
2018-07-13T11:20:40.149Z,5.60
2018-07-13T11:23:08.352Z,6.00
2018-07-13T11:25:36.528Z,6.97
2018-07-13T11:28:04.940Z,5.83
2018-07-13T11:30:32.888Z,7.47
2018-07-13T11:33:01.068Z,6.30
2018-07-13T11:35:29.012Z,6.50
2018-07-13T11:37:57.205Z,6.10
2018-07-13T11:40:25.371Z,5.40
2018-07-13T11:42:53.580Z,6.00
2018-07-13T11:45:21.760Z,7.80
2018-07-13T11:47:49.993Z,7.03
2018-07-13T11:50:18.174Z,6.53
2018-07-13T11:52:46.347Z,5.97
2018-07-13T11:55:14.528Z,7.00
2018-07-13T11:57:42.513Z,7.60
2018-07-13T12:00:10.687Z,7.20
2018-07-13T12:02:38.904Z,5.63
2018-07-13T12:05:07.111Z,5.97
2018-07-13T12:07:35.351Z,5.87
2018-07-13T12:10:03.533Z,5.67
2018-07-13T12:12:31.738Z,6.03
2018-07-13T12:14:59.907Z,6.80
2018-07-13T12:17:28.179Z,6.80
2018-07-13T12:19:56.352Z,6.53
2018-07-13T12:22:24.540Z,6.27
2018-07-13T12:24:52.510Z,6.37
2018-07-13T12:27:20.472Z,6.43
2018-07-13T12:29:48.432Z,6.63
2018-07-13T12:32:16.668Z,6.10
2018-07-13T12:34:44.858Z,7.37
2018-07-13T12:37:13.045Z,6.47
2018-07-13T12:39:41.252Z,7.50
2018-07-13T12:42:09.435Z,6.83
2018-07-13T12:44:37.627Z,6.33
2018-07-13T12:47:05.970Z,6.07
2018-07-13T12:49:33.888Z,5.27
2018-07-13T12:52:02.083Z,5.30
2018-07-13T12:54:30.308Z,6.23
2018-07-13T12:56:58.246Z,6.00
2018-07-13T12:59:26.212Z,6.70
2018-07-13T13:01:54.457Z,6.93
2018-07-13T13:04:22.786Z,6.70
2018-07-13T13:06:50.716Z,5.40
2018-07-13T13:09:18.916Z,5.43
2018-07-13T13:11:46.847Z,6.70
2018-07-13T13:14:15.085Z,4.97
2018-07-13T13:16:43.248Z,4.63
2018-07-13T13:19:11.412Z,4.43
2018-07-13T13:21:39.429Z,5.43
2018-07-13T13:24:07.580Z,3.60
2018-07-13T13:26:35.787Z,4.00
2018-07-13T13:29:05.770Z,4.10
2018-07-13T13:31:33.942Z,4.77
2018-07-13T13:34:02.136Z,4.80
2018-07-13T13:36:30.328Z,5.57
2018-07-13T13:38:58.538Z,4.47
2018-07-13T13:41:26.475Z,4.77
2018-07-13T13:43:54.663Z,3.87
2018-07-13T13:46:22.672Z,3.70
2018-07-13T13:48:50.860Z,3.30
2018-07-13T13:51:19.060Z,3.93
2018-07-13T13:53:47.316Z,3.50
2018-07-13T13:56:15.476Z,3.50
2018-07-13T13:58:43.669Z,4.30
2018-07-13T14:01:11.867Z,4.10
2018-07-13T14:03:40.047Z,3.80
2018-07-13T14:06:08.240Z,4.17
2018-07-13T14:08:36.448Z,4.03
2018-07-13T14:11:04.658Z,3.60
2018-07-13T14:13:32.852Z,3.80
2018-07-13T14:16:00.864Z,3.60
2018-07-13T14:18:29.092Z,4.17
2018-07-13T14:20:57.030Z,4.10
2018-07-13T14:23:25.239Z,3.30
2018-07-13T14:25:53.155Z,3.43
2018-07-13T14:28:21.493Z,4.23
2018-07-13T14:30:49.630Z,4.40
2018-07-13T14:33:18.217Z,3.37
2018-07-13T14:35:46.448Z,3.73
2018-07-13T14:38:14.621Z,3.37
2018-07-13T14:40:42.783Z,4.00
2018-07-13T14:43:10.967Z,2.80
2018-07-13T14:45:39.163Z,3.30
2018-07-13T14:48:07.350Z,3.20
2018-07-13T14:50:35.543Z,3.47
2018-07-13T14:53:03.717Z,2.90
2018-07-13T14:55:31.888Z,3.10
2018-07-13T14:58:00.089Z,3.20
2018-07-13T15:00:28.387Z,3.40
2018-07-13T15:02:56.544Z,3.83
2018-07-13T15:05:24.939Z,3.47
2018-07-13T15:07:53.389Z,3.10
2018-07-13T15:10:21.342Z,3.00
2018-07-13T15:12:49.536Z,3.27
2018-07-13T15:15:17.860Z,3.30
2018-07-13T15:17:46.884Z,3.20
2018-07-13T15:20:15.040Z,3.20
2018-07-13T15:22:43.220Z,3.00
2018-07-13T15:25:11.403Z,3.90
2018-07-13T15:27:39.642Z,2.50
2018-07-13T15:30:07.808Z,3.37
2018-07-13T15:32:35.993Z,3.40
2018-07-13T15:35:04.247Z,3.03
2018-07-13T15:37:32.429Z,2.80
2018-07-13T15:40:00.616Z,2.70
2018-07-13T15:42:28.923Z,9.07
2018-07-13T15:44:57.128Z,9.80
2018-07-13T15:47:25.309Z,3.37
2018-07-13T15:49:53.494Z,2.83
2018-07-13T15:52:21.693Z,3.50
2018-07-13T15:54:49.888Z,3.23
2018-07-13T15:57:18.072Z,2.73
2018-07-13T15:59:46.020Z,2.97
2018-07-13T16:02:14.217Z,3.17
2018-07-13T16:04:42.411Z,2.93
2018-07-13T16:07:10.604Z,4.53
2018-07-13T16:09:38.804Z,3.43
2018-07-13T16:12:06.993Z,4.87
2018-07-13T16:14:35.171Z,4.60
2018-07-13T16:17:03.350Z,3.80
2018-07-13T16:19:31.507Z,3.30
2018-07-13T16:21:59.677Z,3.13
2018-07-13T16:24:27.901Z,3.60
2018-07-13T16:26:56.076Z,3.83
2018-07-13T16:29:24.252Z,3.13
2018-07-13T16:31:52.449Z,3.53
2018-07-13T16:34:20.615Z,2.53
2018-07-13T16:36:48.811Z,3.50
2018-07-13T16:39:17.005Z,3.10
2018-07-13T16:41:44.964Z,3.40
2018-07-13T16:44:13.159Z,3.77
2018-07-13T16:46:41.336Z,3.20
2018-07-13T16:49:09.259Z,3.53
2018-07-13T16:51:37.451Z,3.33
2018-07-13T16:54:05.716Z,2.73
2018-07-13T16:56:33.935Z,4.13
2018-07-13T16:59:02.099Z,3.73
2018-07-13T17:01:31.175Z,4.03
2018-07-13T17:03:59.365Z,4.20
2018-07-13T17:06:27.559Z,4.37
2018-07-13T17:08:56.076Z,5.27
2018-07-13T17:11:24.271Z,5.60
2018-07-13T17:13:52.508Z,4.50
2018-07-13T17:16:20.687Z,4.40
2018-07-13T17:18:48.894Z,3.83
2018-07-13T17:21:17.103Z,4.00
2018-07-13T17:23:45.060Z,3.00
2018-07-13T17:26:13.278Z,3.30
2018-07-13T17:28:41.393Z,3.57
2018-07-13T17:31:09.583Z,3.07
2018-07-13T17:33:37.748Z,2.93
2018-07-13T17:36:05.929Z,2.80
2018-07-13T17:38:34.129Z,2.83
2018-07-13T17:41:02.313Z,2.70
2018-07-13T17:43:30.511Z,2.60
2018-07-13T17:45:58.778Z,2.87
2018-07-13T17:48:26.949Z,2.90
2018-07-13T17:50:55.139Z,2.90
2018-07-13T17:53:23.324Z,3.00
2018-07-13T17:55:51.511Z,2.67
2018-07-13T17:58:19.703Z,2.93
2018-07-13T18:00:47.975Z,2.30
2018-07-13T18:03:16.141Z,2.50
2018-07-13T18:05:44.311Z,2.30
2018-07-13T18:08:12.496Z,2.87
2018-07-13T18:10:40.443Z,2.80
2018-07-13T18:13:08.737Z,2.20
2018-07-13T18:15:37.169Z,2.70
2018-07-13T18:18:05.348Z,2.30
2018-07-13T18:20:33.619Z,7.57
2018-07-13T18:23:01.870Z,3.40
2018-07-13T18:25:29.976Z,2.80
2018-07-13T18:27:58.191Z,2.67
2018-07-13T18:30:26.124Z,2.60
2018-07-13T18:32:54.387Z,2.57
2018-07-13T18:35:22.603Z,2.17
2018-07-13T18:37:50.587Z,2.50
2018-07-13T18:40:18.788Z,3.03
2018-07-13T18:42:46.983Z,2.60
2018-07-13T18:45:15.172Z,2.40
2018-07-13T18:47:43.350Z,2.20
2018-07-13T18:50:11.533Z,2.73
2018-07-13T18:52:39.733Z,2.90
2018-07-13T18:55:07.722Z,3.30
2018-07-13T18:57:35.920Z,2.83
2018-07-13T19:00:04.532Z,3.20
2018-07-13T19:02:32.732Z,3.43
2018-07-13T19:05:00.892Z,2.53
2018-07-13T19:07:28.907Z,2.60
2018-07-13T19:09:57.096Z,3.07
2018-07-13T19:12:25.252Z,3.17
2018-07-13T19:14:54.576Z,2.60
2018-07-13T19:17:24.880Z,2.40
2018-07-13T19:19:53.974Z,2.77
2018-07-13T19:22:23.802Z,2.90
2018-07-13T19:24:57.109Z,2.53
2018-07-13T19:27:27.415Z,2.80
2018-07-13T19:29:56.456Z,2.50
2018-07-13T19:32:28.711Z,3.00
2018-07-13T19:34:58.949Z,3.37
2018-07-13T19:37:31.097Z,3.30
2018-07-13T19:39:59.698Z,3.20
2018-07-13T19:42:29.234Z,3.10
2018-07-13T19:44:58.381Z,2.23
2018-07-13T19:47:27.652Z,2.77
2018-07-13T19:49:55.855Z,3.00
2018-07-13T19:52:24.047Z,2.93
2018-07-13T19:54:52.660Z,2.73
2018-07-13T19:57:21.434Z,3.30
2018-07-13T19:59:49.568Z,2.67
2018-07-13T20:02:17.772Z,2.80
2018-07-13T20:04:46.022Z,2.57
2018-07-13T20:07:14.208Z,2.80
2018-07-13T20:09:42.195Z,2.60
2018-07-13T20:12:10.417Z,3.30
2018-07-13T20:14:38.602Z,2.77
2018-07-13T20:17:06.800Z,2.60
2018-07-13T20:19:34.971Z,2.87
2018-07-13T20:22:02.959Z,3.23
2018-07-13T20:24:31.896Z,3.10
2018-07-13T20:27:00.081Z,3.17
2018-07-13T20:29:28.384Z,3.20
2018-07-13T20:31:56.324Z,2.90
2018-07-13T20:34:24.554Z,3.20
2018-07-13T20:36:52.834Z,2.97
2018-07-13T20:39:21.122Z,3.20
2018-07-13T20:41:49.283Z,3.40
2018-07-13T20:44:17.537Z,3.30
2018-07-13T20:46:45.752Z,2.83
2018-07-13T20:49:13.944Z,3.17
2018-07-13T20:51:42.187Z,3.33
2018-07-13T20:54:10.468Z,4.17
2018-07-13T20:56:38.607Z,3.43
2018-07-13T20:59:06.838Z,3.20
2018-07-13T21:01:35.076Z,2.80
2018-07-13T21:04:03.295Z,3.30
2018-07-13T21:06:32.472Z,2.87
2018-07-13T21:09:00.716Z,3.20
2018-07-13T21:11:28.916Z,2.60
2018-07-13T21:13:57.380Z,3.40
2018-07-13T21:16:25.592Z,2.90
2018-07-13T21:18:53.849Z,2.77
2018-07-13T21:21:22.063Z,2.53
2018-07-13T21:23:50.030Z,3.03
2018-07-13T21:26:18.248Z,2.93
2018-07-13T21:28:46.466Z,3.03
2018-07-13T21:31:14.651Z,2.73
2018-07-13T21:33:42.915Z,2.70
2018-07-13T21:36:11.148Z,2.57
2018-07-13T21:38:39.337Z,2.30
2018-07-13T21:41:07.536Z,2.77
2018-07-13T21:43:35.804Z,2.90
2018-07-13T21:46:03.971Z,3.20
2018-07-13T21:48:32.245Z,2.87
2018-07-13T21:51:00.454Z,2.93
2018-07-13T21:53:28.637Z,2.57
2018-07-13T21:55:56.812Z,2.40
2018-07-13T21:58:24.748Z,2.83
2018-07-13T22:00:52.935Z,2.90
2018-07-13T22:03:21.168Z,2.93
2018-07-13T22:05:49.361Z,2.80
2018-07-13T22:08:17.564Z,2.70
2018-07-13T22:10:45.768Z,3.30
2018-07-13T22:13:14.002Z,2.83
2018-07-13T22:15:42.155Z,3.50
2018-07-13T22:18:10.353Z,2.77
2018-07-13T22:20:38.585Z,2.97
2018-07-13T22:23:06.741Z,2.83
2018-07-13T22:25:34.939Z,3.00
2018-07-13T22:28:03.135Z,2.40
2018-07-13T22:30:31.334Z,2.80
2018-07-13T22:32:59.580Z,3.27
2018-07-13T22:35:27.760Z,3.27
2018-07-13T22:37:55.947Z,3.20
2018-07-13T22:40:23.908Z,2.87
2018-07-13T22:42:52.088Z,3.70
2018-07-13T22:45:20.277Z,3.00
2018-07-13T22:47:54.567Z,3.47
2018-07-13T22:50:22.767Z,3.90
2018-07-13T22:52:50.723Z,3.67
2018-07-13T22:55:19.692Z,3.30
2018-07-13T22:57:47.868Z,4.00
2018-07-13T23:00:16.080Z,4.00
2018-07-13T23:02:44.282Z,4.70
2018-07-13T23:05:12.475Z,3.43
2018-07-13T23:07:40.688Z,4.60
2018-07-13T23:10:08.647Z,3.93
2018-07-13T23:12:36.820Z,4.33
2018-07-13T23:15:05.064Z,4.67
2018-07-13T23:17:33.243Z,3.47
2018-07-13T23:20:01.471Z,4.60
2018-07-13T23:22:29.669Z,4.20
2018-07-13T23:24:57.904Z,4.07
2018-07-13T23:27:26.079Z,3.80
2018-07-13T23:29:54.020Z,4.17
2018-07-13T23:32:22.208Z,3.97
2018-07-13T23:34:50.371Z,4.43
2018-07-13T23:37:18.565Z,4.93
2018-07-13T23:39:46.731Z,4.73
2018-07-13T23:42:14.908Z,4.13
2018-07-13T23:44:43.084Z,5.30
2018-07-13T23:47:11.259Z,5.00
2018-07-13T23:49:39.215Z,4.40
2018-07-13T23:52:07.430Z,5.17
2018-07-13T23:54:35.620Z,5.23
2018-07-13T23:57:03.796Z,4.70
2018-07-13T23:59:31.978Z,4.50
